Time;durP1;ratioP1;P1;durP2;ratioP2;P2;SDS_P1;SDS_P2;PMS_P1;PMS_P2;Temp;Humidity;BMP_temperature;BMP_pressure;BME280_temperature;BME280_humidity;BME280_pressure;Samples;Min_cycle;Max_cycle;Signal;HPM_P1;HPM_P2
2023/06/10 00:00:24;;;;;;;14.82;10.88;;;22.10;57.00;;;;;;5041274;28;20075;-74
2023/06/10 00:02:50;;;;;;;14.38;11.52;;;22.10;57.20;;;;;;5037190;28;20069;-74
2023/06/10 00:05:16;;;;;;;17.58;11.20;;;22.10;57.30;;;;;;5045911;28;20090;-74
2023/06/10 00:07:42;;;;;;;12.65;11.07;;;22.00;57.40;;;;;;5040112;28;20044;-74
2023/06/10 00:10:08;;;;;;;13.40;11.10;;;22.10;57.50;;;;;;5044284;28;20017;-74
2023/06/10 00:12:37;;;;;;;18.23;11.18;;;22.00;57.70;;;;;;5038550;28;20520;-74
2023/06/10 00:15:07;;;;;;;12.45;10.82;;;21.90;57.90;;;;;;5039018;28;20025;-75
2023/06/10 00:17:32;;;;;;;13.48;10.15;;;21.90;58.10;;;;;;5040834;28;20471;-74
2023/06/10 00:19:58;;;;;;;11.32;10.02;;;21.80;58.10;;;;;;5045072;28;20033;-75
2023/06/10 00:22:29;;;;;;;12.35;11.07;;;21.80;58.30;;;;;;5034592;28;20111;-74
2023/06/10 00:24:56;;;;;;;15.98;10.77;;;21.80;58.40;;;;;;5043490;28;20619;-74
2023/06/10 00:27:22;;;;;;;12.13;10.82;;;21.70;58.50;;;;;;5041858;28;20055;-74
2023/06/10 00:29:47;;;;;;;16.70;11.95;;;21.70;58.70;;;;;;5039007;28;20418;-74
2023/06/10 00:32:13;;;;;;;14.07;11.45;;;21.60;58.90;;;;;;5037533;28;20037;-74
2023/06/10 00:34:39;;;;;;;13.15;11.00;;;21.60;59.10;;;;;;5040483;28;20029;-74
2023/06/10 00:37:05;;;;;;;14.95;11.48;;;21.60;59.20;;;;;;5044553;28;20110;-74
2023/06/10 00:39:30;;;;;;;11.18;9.98;;;21.50;59.20;;;;;;5039024;28;20025;-74
2023/06/10 00:41:56;;;;;;;13.23;9.95;;;21.50;59.50;;;;;;5040765;28;20094;-74
2023/06/10 00:44:22;;;;;;;11.65;10.00;;;21.50;59.50;;;;;;5038469;28;20108;-74
2023/06/10 00:46:49;;;;;;;11.85;9.77;;;21.40;59.70;;;;;;5040009;28;20118;-74
2023/06/10 00:49:16;;;;;;;12.23;9.80;;;21.40;59.70;;;;;;5040573;28;20167;-74
2023/06/10 00:51:42;;;;;;;13.77;10.90;;;21.40;59.70;;;;;;5037992;28;20039;-74
2023/06/10 00:54:08;;;;;;;15.63;11.02;;;21.40;59.80;;;;;;5041915;28;20048;-74
2023/06/10 00:56:35;;;;;;;12.70;11.20;;;21.40;59.90;;;;;;5042015;28;20056;-74
2023/06/10 00:59:01;;;;;;;13.38;10.82;;;21.30;60.10;;;;;;5038174;28;20116;-75
2023/06/10 01:01:26;;;;;;;14.13;11.35;;;21.30;60.30;;;;;;5028978;28;20180;-74
2023/06/10 01:03:52;;;;;;;11.75;10.35;;;21.30;60.40;;;;;;5035022;28;20470;-74
2023/06/10 01:06:47;;;;;;;12.18;10.98;;;21.20;60.30;;;;;;5042980;28;20069;-74
2023/06/10 01:09:25;;;;;;;13.85;11.60;;;21.10;60.60;;;;;;5037290;28;20465;-75
2023/06/10 01:12:20;;;;;;;13.50;12.02;;;21.10;60.70;;;;;;5039097;28;20035;-74
2023/06/10 01:14:48;;;;;;;15.60;11.70;;;21.10;60.70;;;;;;5039906;28;20560;-74
2023/06/10 01:17:16;;;;;;;12.30;11.00;;;21.10;61.00;;;;;;5041474;28;20049;-74
2023/06/10 01:19:43;;;;;;;13.02;11.43;;;21.10;61.20;;;;;;5033649;28;20032;-74
2023/06/10 01:22:10;;;;;;;13.23;10.85;;;21.10;61.20;;;;;;5036954;28;20037;-74
2023/06/10 01:24:36;;;;;;;14.95;11.65;;;21.00;61.30;;;;;;5032065;28;20030;-74
2023/06/10 01:27:09;;;;;;;13.02;11.35;;;21.00;61.40;;;;;;5044839;28;20120;-74
2023/06/10 01:29:44;;;;;;;14.25;11.52;;;21.00;61.50;;;;;;5039903;28;20106;-74
2023/06/10 01:32:21;;;;;;;13.52;12.13;;;21.00;61.50;;;;;;5042996;28;20420;-74
2023/06/10 01:34:48;;;;;;;16.02;11.77;;;21.00;61.60;;;;;;5039288;28;20028;-74
2023/06/10 01:37:17;;;;;;;13.82;11.85;;;20.90;61.80;;;;;;5038086;28;20045;-74
2023/06/10 01:39:44;;;;;;;12.65;11.35;;;20.90;61.80;;;;;;5040016;28;20048;-74
2023/06/10 01:42:11;;;;;;;13.98;11.50;;;20.90;61.80;;;;;;5038343;28;20123;-74
2023/06/10 01:44:39;;;;;;;14.07;11.80;;;20.80;62.10;;;;;;5036462;28;20128;-75
2023/06/10 01:47:04;;;;;;;13.55;12.00;;;20.80;62.20;;;;;;5043007;28;20043;-74
2023/06/10 01:49:30;;;;;;;12.98;10.73;;;20.70;62.20;;;;;;5044175;28;20570;-75
2023/06/10 01:51:56;;;;;;;14.02;12.13;;;20.70;62.30;;;;;;5039611;28;20224;-74
2023/06/10 01:54:21;;;;;;;14.95;12.63;;;20.70;62.40;;;;;;5037126;28;20477;-74
2023/06/10 01:56:47;;;;;;;15.70;12.40;;;20.70;62.50;;;;;;5036240;28;20044;-74
2023/06/10 01:59:13;;;;;;;12.95;10.88;;;20.60;62.50;;;;;;5042215;28;20033;-74
2023/06/10 02:01:38;;;;;;;14.05;12.43;;;20.60;62.60;;;;;;5043398;28;20053;-74
2023/06/10 02:04:04;;;;;;;13.32;11.85;;;20.60;62.60;;;;;;5034013;28;20040;-74
2023/06/10 02:06:30;;;;;;;15.10;12.27;;;20.60;62.50;;;;;;5038969;28;20128;-75
2023/06/10 02:08:55;;;;;;;14.23;12.60;;;20.60;62.60;;;;;;5039877;28;20399;-75
2023/06/10 02:11:21;;;;;;;14.77;12.40;;;20.60;62.60;;;;;;5043041;28;20441;-75
2023/06/10 02:13:47;;;;;;;12.68;11.38;;;20.50;62.90;;;;;;5039926;28;20045;-74
2023/06/10 02:16:13;;;;;;;14.93;12.43;;;20.60;63.00;;;;;;5043025;28;20117;-74
2023/06/10 02:18:42;;;;;;;12.73;11.43;;;20.60;63.00;;;;;;5044339;28;20032;-75
2023/06/10 02:21:08;;;;;;;14.15;11.88;;;20.50;63.00;;;;;;5041778;28;20048;-75
2023/06/10 02:23:34;;;;;;;13.55;12.15;;;20.50;63.20;;;;;;5037238;28;20034;-75
2023/06/10 02:26:00;;;;;;;14.82;12.80;;;20.50;63.20;;;;;;5038011;28;20389;-76
2023/06/10 02:28:26;;;;;;;15.57;12.63;;;20.40;63.40;;;;;;5038999;28;20025;-75
2023/06/10 02:30:52;;;;;;;15.52;11.70;;;20.40;63.50;;;;;;5034309;28;20052;-75
2023/06/10 02:33:18;;;;;;;14.30;12.68;;;20.30;63.60;;;;;;5031878;28;20028;-76
2023/06/10 02:35:43;;;;;;;13.50;11.45;;;20.30;63.50;;;;;;5037085;28;20030;-73
2023/06/10 02:38:09;;;;;;;15.23;12.35;;;20.30;63.60;;;;;;5043990;28;20093;-75
2023/06/10 02:40:35;;;;;;;13.88;12.48;;;20.30;63.70;;;;;;5040053;28;20061;-75
2023/06/10 02:43:01;;;;;;;14.98;13.27;;;20.30;63.70;;;;;;5038005;28;20056;-75
2023/06/10 02:45:26;;;;;;;14.18;12.68;;;20.30;63.60;;;;;;5034235;28;20033;-75
2023/06/10 02:47:52;;;;;;;14.88;13.45;;;20.20;63.80;;;;;;5034571;28;20539;-76
2023/06/10 02:50:18;;;;;;;16.83;13.95;;;20.20;63.80;;;;;;5032182;28;20125;-75
2023/06/10 02:52:43;;;;;;;14.18;12.68;;;20.20;63.80;;;;;;5036304;28;20075;-75
2023/06/10 02:55:09;;;;;;;14.68;13.27;;;20.20;63.90;;;;;;5032538;28;20037;-75
2023/06/10 02:57:35;;;;;;;15.90;13.13;;;20.20;63.90;;;;;;5041656;28;20029;-75
2023/06/10 03:00:01;;;;;;;18.20;14.70;;;20.10;64.00;;;;;;5037141;28;20034;-75
2023/06/10 03:02:28;;;;;;;15.98;14.27;;;20.10;64.00;;;;;;5033216;28;20065;-74
2023/06/10 03:04:57;;;;;;;17.67;14.90;;;20.10;64.00;;;;;;5037690;28;20416;-75
2023/06/10 03:07:23;;;;;;;15.07;13.50;;;20.10;64.10;;;;;;5036822;28;20045;-74
2023/06/10 03:09:49;;;;;;;15.70;14.00;;;20.10;64.30;;;;;;5044514;28;20029;-74
2023/06/10 03:12:15;;;;;;;16.42;14.80;;;20.10;64.30;;;;;;5040328;28;20048;-74
2023/06/10 03:14:41;;;;;;;18.60;14.38;;;20.00;64.30;;;;;;5038643;28;20049;-74
2023/06/10 03:17:08;;;;;;;16.63;14.57;;;20.00;64.50;;;;;;5046551;28;20044;-74
2023/06/10 03:19:34;;;;;;;15.90;13.38;;;19.90;64.60;;;;;;5046703;28;20083;-73
2023/06/10 03:22:10;;;;;;;18.38;14.57;;;19.90;64.60;;;;;;5046495;28;20080;-74
2023/06/10 03:24:39;;;;;;;19.98;15.07;;;19.80;64.80;;;;;;5044104;28;20030;-74
2023/06/10 03:27:06;;;;;;;17.00;14.15;;;19.80;65.00;;;;;;5046387;28;20040;-74
2023/06/10 03:29:32;;;;;;;21.60;16.08;;;19.80;65.00;;;;;;5042667;28;20032;-74
2023/06/10 03:31:58;;;;;;;16.23;14.55;;;19.80;65.00;;;;;;5043850;28;20068;-74
2023/06/10 03:34:23;;;;;;;17.02;15.23;;;19.80;65.00;;;;;;5046247;28;20028;-74
2023/06/10 03:36:49;;;;;;;15.13;13.63;;;19.80;65.10;;;;;;5046351;28;20045;-74
2023/06/10 03:39:15;;;;;;;16.77;15.07;;;19.80;65.20;;;;;;5036621;28;20133;-74
2023/06/10 03:41:41;;;;;;;15.38;13.88;;;19.70;65.20;;;;;;5041889;28;20037;-74
2023/06/10 03:44:07;;;;;;;16.90;13.27;;;19.70;65.20;;;;;;5036106;28;20044;-74
2023/06/10 03:46:32;;;;;;;15.55;14.07;;;19.80;65.10;;;;;;5046508;28;20036;-74
2023/06/10 03:49:00;;;;;;;17.65;14.23;;;19.80;65.20;;;;;;5042972;28;20381;-74
2023/06/10 03:51:26;;;;;;;14.68;13.15;;;19.80;65.10;;;;;;5036926;28;20410;-74
2023/06/10 03:53:52;;;;;;;15.23;13.48;;;19.80;65.10;;;;;;5046890;28;20025;-74
2023/06/10 03:56:18;;;;;;;15.95;12.52;;;19.80;65.00;;;;;;5042852;28;20465;-74
2023/06/10 03:58:44;;;;;;;14.05;12.65;;;19.80;65.00;;;;;;5043624;28;20349;-74
2023/06/10 04:01:10;;;;;;;15.13;13.52;;;19.90;64.90;;;;;;5038506;28;20041;-74
2023/06/10 04:03:36;;;;;;;14.80;13.20;;;19.90;64.70;;;;;;5034769;28;20051;-74
2023/06/10 04:06:02;;;;;;;15.20;13.63;;;19.90;64.80;;;;;;5035793;28;20028;-74
2023/06/10 04:08:28;;;;;;;16.83;14.07;;;19.90;64.80;;;;;;5037559;28;20013;-74
2023/06/10 04:10:53;;;;;;;15.40;13.35;;;20.00;64.90;;;;;;5043857;28;20039;-74
2023/06/10 04:13:19;;;;;;;15.98;14.30;;;20.00;64.90;;;;;;5039724;28;20050;-74
2023/06/10 04:15:45;;;;;;;22.15;14.52;;;20.00;64.70;;;;;;5035768;28;20602;-74
2023/06/10 04:18:10;;;;;;;17.55;14.40;;;20.10;64.70;;;;;;5042752;28;20047;-74
2023/06/10 04:20:36;;;;;;;14.18;12.85;;;20.10;64.60;;;;;;5030589;28;20482;-74
2023/06/10 04:23:02;;;;;;;19.15;15.77;;;20.10;64.60;;;;;;5039790;28;20301;-75
2023/06/10 04:25:28;;;;;;;17.88;14.93;;;20.10;64.70;;;;;;5030201;28;20029;-74
2023/06/10 04:27:54;;;;;;;18.88;14.10;;;20.10;64.50;;;;;;5040735;28;20041;-73
2023/06/10 04:30:20;;;;;;;16.45;14.23;;;20.10;64.60;;;;;;5045740;28;20041;-74
2023/06/10 04:32:46;;;;;;;19.75;15.27;;;20.10;64.60;;;;;;5042212;28;20077;-74
2023/06/10 04:35:13;;;;;;;16.83;15.02;;;20.10;64.50;;;;;;5043857;28;20055;-74
2023/06/10 04:37:40;;;;;;;17.25;14.43;;;20.10;65.10;;;;;;5041730;28;20098;-74
2023/06/10 04:40:07;;;;;;;19.20;15.38;;;20.10;65.00;;;;;;5044331;28;20029;-73
2023/06/10 04:42:33;;;;;;;16.40;14.68;;;20.10;64.80;;;;;;5038617;28;20033;-74
2023/06/10 04:44:58;;;;;;;19.35;14.38;;;20.10;64.80;;;;;;5040427;28;20091;-74
2023/06/10 04:47:25;;;;;;;17.27;15.15;;;20.20;64.70;;;;;;5042712;28;20443;-74
2023/06/10 04:49:51;;;;;;;15.68;13.90;;;20.20;65.00;;;;;;5046995;28;20064;-74
2023/06/10 04:52:17;;;;;;;15.20;13.60;;;20.30;64.70;;;;;;5038418;28;20069;-73
2023/06/10 04:54:43;;;;;;;18.38;14.93;;;20.40;64.70;;;;;;5037570;28;20033;-74
2023/06/10 04:57:10;;;;;;;18.10;14.57;;;20.40;64.60;;;;;;5034529;28;20633;-73
2023/06/10 04:59:37;;;;;;;16.13;14.43;;;20.50;64.70;;;;;;5040803;28;20029;-73
2023/06/10 05:02:04;;;;;;;15.65;14.02;;;20.60;64.50;;;;;;5037218;28;20053;-73
2023/06/10 05:04:30;;;;;;;19.10;14.63;;;20.60;64.70;;;;;;5037534;28;20029;-74
2023/06/10 05:06:56;;;;;;;17.02;14.13;;;20.60;64.60;;;;;;5030158;28;20404;-73
2023/06/10 05:09:21;;;;;;;16.48;14.70;;;21.00;63.80;;;;;;5042695;28;20025;-74
2023/06/10 05:11:47;;;;;;;17.27;13.75;;;22.00;61.80;;;;;;5035406;28;20115;-74
2023/06/10 05:14:13;;;;;;;16.05;13.38;;;23.20;57.60;;;;;;5029107;28;20112;-74
2023/06/10 05:16:38;;;;;;;15.70;13.25;;;24.50;54.50;;;;;;5036425;28;20394;-74
2023/06/10 05:19:04;;;;;;;14.50;12.73;;;25.30;52.20;;;;;;5029749;28;20544;-74
2023/06/10 05:21:30;;;;;;;16.38;12.88;;;26.20;49.90;;;;;;5038291;28;20041;-74
2023/06/10 05:23:56;;;;;;;17.10;13.23;;;26.70;48.30;;;;;;5042249;28;20325;-74
2023/06/10 05:26:21;;;;;;;15.45;13.18;;;27.30;47.30;;;;;;5035388;28;20397;-74
2023/06/10 05:28:47;;;;;;;15.88;12.38;;;27.60;46.20;;;;;;5035957;28;20482;-74
2023/06/10 05:31:13;;;;;;;15.32;12.35;;;27.80;45.50;;;;;;5038613;28;20040;-74
2023/06/10 05:33:39;;;;;;;14.90;11.95;;;28.20;44.80;;;;;;5042806;28;20485;-73
2023/06/10 05:36:05;;;;;;;18.45;13.40;;;28.10;45.40;;;;;;5032634;28;20359;-74
2023/06/10 05:38:31;;;;;;;14.10;11.75;;;28.20;44.50;;;;;;5034934;28;20029;-74
2023/06/10 05:40:58;;;;;;;17.27;12.70;;;28.40;44.30;;;;;;5039619;28;20398;-74
2023/06/10 05:43:24;;;;;;;15.85;12.27;;;28.60;44.10;;;;;;5035350;28;20032;-74
2023/06/10 05:45:50;;;;;;;14.27;11.73;;;28.90;43.40;;;;;;5039152;28;20033;-74
2023/06/10 05:48:19;;;;;;;17.63;14.05;;;28.50;44.10;;;;;;5038841;28;20039;-74
2023/06/10 05:50:48;;;;;;;17.48;13.50;;;28.20;44.50;;;;;;5036618;28;20055;-74
2023/06/10 05:53:15;;;;;;;16.02;13.73;;;27.80;45.30;;;;;;5042875;28;20052;-74
2023/06/10 05:55:43;;;;;;;16.65;12.93;;;27.10;47.20;;;;;;5039698;28;20049;-74
2023/06/10 05:58:09;;;;;;;17.85;14.73;;;26.50;49.00;;;;;;5039921;28;20137;-74
2023/06/10 06:00:35;;;;;;;15.65;13.93;;;25.70;50.90;;;;;;5035053;28;20440;-74
2023/06/10 06:03:00;;;;;;;19.38;14.35;;;25.10;52.20;;;;;;5037312;28;20088;-74
2023/06/10 06:05:26;;;;;;;14.15;12.65;;;24.90;53.10;;;;;;5033496;28;20037;-73
2023/06/10 06:07:52;;;;;;;15.27;13.68;;;24.60;53.30;;;;;;5034481;28;20474;-74
2023/06/10 06:10:18;;;;;;;15.25;13.00;;;24.40;54.50;;;;;;5033194;28;20573;-74
2023/06/10 06:12:44;;;;;;;16.48;14.48;;;24.30;55.00;;;;;;5043210;28;20115;-74
2023/06/10 06:15:11;;;;;;;16.85;13.65;;;24.10;55.30;;;;;;5031181;28;20029;-74
2023/06/10 06:17:36;;;;;;;15.70;14.07;;;24.10;55.60;;;;;;5042737;28;20140;-74
2023/06/10 06:20:03;;;;;;;16.95;13.57;;;24.10;55.90;;;;;;5034294;28;20441;-73
2023/06/10 06:22:29;;;;;;;16.02;13.68;;;24.10;55.80;;;;;;5029870;28;20037;-74
2023/06/10 06:24:55;;;;;;;18.30;13.43;;;24.30;55.90;;;;;;5033210;28;20448;-74
2023/06/10 06:27:21;;;;;;;16.75;13.43;;;24.40;55.80;;;;;;5034850;28;20125;-74
2023/06/10 06:29:47;;;;;;;15.20;13.27;;;24.50;54.40;;;;;;5042519;28;20037;-74
2023/06/10 06:32:12;;;;;;;15.02;12.85;;;24.50;54.40;;;;;;5034377;28;20481;-74
2023/06/10 06:34:38;;;;;;;14.65;12.30;;;24.70;54.40;;;;;;5034596;28;20017;-74
2023/06/10 06:37:04;;;;;;;15.27;12.63;;;24.80;53.70;;;;;;5038836;28;20059;-74
2023/06/10 06:39:30;;;;;;;15.20;13.18;;;24.90;53.10;;;;;;5038835;28;20076;-75
2023/06/10 06:41:55;;;;;;;14.05;11.90;;;24.90;53.50;;;;;;5038230;28;20478;-74
2023/06/10 06:44:21;;;;;;;15.23;11.80;;;25.00;52.70;;;;;;5042967;28;20033;-74
2023/06/10 06:46:46;;;;;;;12.98;11.48;;;25.10;52.90;;;;;;5039099;28;20134;-74
2023/06/10 06:49:12;;;;;;;13.68;11.38;;;25.20;52.60;;;;;;5044515;28;20440;-74
2023/06/10 06:51:41;;;;;;;16.08;12.45;;;25.30;52.40;;;;;;5040055;28;20038;-74
2023/06/10 06:54:06;;;;;;;12.90;11.45;;;25.30;52.10;;;;;;5037795;28;20036;-74
2023/06/10 06:56:32;;;;;;;12.35;11.02;;;25.40;52.70;;;;;;5039481;28;20404;-73
2023/06/10 06:58:58;;;;;;;13.30;11.57;;;25.40;50.90;;;;;;5038900;28;20487;-73
2023/06/10 07:01:24;;;;;;;13.43;12.00;;;25.40;51.70;;;;;;5039391;28;20477;-73
2023/06/10 07:03:49;;;;;;;19.48;12.32;;;25.30;51.00;;;;;;5043739;28;20037;-74
2023/06/10 07:06:15;;;;;;;13.32;11.25;;;25.50;51.60;;;;;;5038076;28;20144;-73
2023/06/10 07:08:40;;;;;;;14.98;11.57;;;25.80;51.40;;;;;;5042370;28;20025;-73
2023/06/10 07:11:06;;;;;;;13.45;11.25;;;25.80;50.50;;;;;;5039206;28;20041;-73
2023/06/10 07:13:32;;;;;;;14.32;11.45;;;26.00;50.60;;;;;;5046819;28;20041;-73
2023/06/10 07:15:57;;;;;;;12.10;10.77;;;26.10;49.70;;;;;;5044835;28;20033;-73
2023/06/10 07:18:23;;;;;;;13.73;11.00;;;26.10;49.80;;;;;;5045358;28;20043;-73
2023/06/10 07:20:49;;;;;;;13.98;11.13;;;26.30;49.00;;;;;;5044530;28;20049;-73
2023/06/10 07:23:17;;;;;;;12.60;11.13;;;26.30;49.20;;;;;;5046550;28;20029;-73
2023/06/10 07:25:43;;;;;;;14.93;10.48;;;26.50;48.70;;;;;;5045905;28;20040;-73
2023/06/10 07:28:08;;;;;;;17.10;11.13;;;26.60;48.80;;;;;;5040273;28;20279;-73
2023/06/10 07:30:34;;;;;;;14.02;11.40;;;26.60;48.30;;;;;;5046969;28;20032;-72
2023/06/10 07:33:00;;;;;;;12.38;10.82;;;26.70;49.10;;;;;;5038250;28;20481;-78
2023/06/10 07:35:26;;;;;;;13.55;10.48;;;26.90;48.90;;;;;;5041096;28;20505;-76
2023/06/10 07:37:52;;;;;;;13.00;9.63;;;27.00;48.50;;;;;;5030731;28;20029;-74
2023/06/10 07:40:17;;;;;;;15.10;10.35;;;27.20;48.30;;;;;;5035486;28;20101;-73
2023/06/10 07:42:43;;;;;;;13.27;10.30;;;27.30;47.90;;;;;;5045442;28;20037;-73
2023/06/10 07:45:09;;;;;;;15.13;10.25;;;27.20;47.40;;;;;;5045542;28;20483;-73
2023/06/10 07:47:35;;;;;;;11.57;9.95;;;27.40;47.40;;;;;;5044847;28;20440;-73
2023/06/10 07:50:01;;;;;;;10.38;9.27;;;27.40;46.40;;;;;;5044597;28;20028;-73
2023/06/10 07:52:28;;;;;;;11.85;9.75;;;27.50;47.10;;;;;;5040845;28;20044;-73
2023/06/10 07:54:54;;;;;;;11.68;9.23;;;27.80;46.70;;;;;;5038996;28;20033;-73
2023/06/10 07:57:19;;;;;;;12.75;9.73;;;27.70;45.90;;;;;;5037193;28;20134;-73
2023/06/10 07:59:45;;;;;;;12.07;10.30;;;27.70;45.90;;;;;;5042604;28;20084;-73
2023/06/10 08:02:11;;;;;;;14.93;10.18;;;28.00;45.40;;;;;;5037808;28;20079;-73
2023/06/10 08:04:36;;;;;;;14.80;9.70;;;28.10;45.10;;;;;;5045707;28;20363;-73
2023/06/10 08:07:03;;;;;;;13.05;9.45;;;28.20;45.30;;;;;;5040134;28;20041;-73
2023/06/10 08:09:28;;;;;;;12.13;9.50;;;28.30;44.90;;;;;;5041070;28;20065;-74
2023/06/10 08:11:55;;;;;;;11.05;8.98;;;28.50;44.40;;;;;;5043638;28;20068;-73
2023/06/10 08:14:21;;;;;;;11.52;9.23;;;28.50;44.10;;;;;;5039097;28;20494;-73
2023/06/10 08:16:46;;;;;;;10.02;8.93;;;28.60;44.50;;;;;;5037458;28;20122;-73
2023/06/10 08:19:12;;;;;;;9.95;8.55;;;28.70;44.30;;;;;;5033378;28;20095;-73
2023/06/10 08:21:39;;;;;;;12.90;8.52;;;29.00;43.90;;;;;;5038774;28;20405;-73
2023/06/10 08:24:08;;;;;;;13.05;8.98;;;28.80;43.90;;;;;;5037948;28;20027;-73
2023/06/10 08:26:34;;;;;;;11.48;8.82;;;28.90;44.30;;;;;;5037935;28;20215;-73
2023/06/10 08:29:00;;;;;;;11.82;8.82;;;29.30;43.50;;;;;;5036720;28;20104;-73
2023/06/10 08:31:25;;;;;;;11.40;9.02;;;29.20;43.20;;;;;;5038830;28;20041;-73
2023/06/10 08:33:51;;;;;;;16.85;9.07;;;29.20;43.10;;;;;;5038354;28;20028;-73
2023/06/10 08:36:17;;;;;;;10.73;8.63;;;29.10;43.00;;;;;;5038812;28;20041;-73
2023/06/10 08:38:42;;;;;;;11.43;8.60;;;29.30;42.90;;;;;;5039122;28;20069;-73
2023/06/10 08:41:13;;;;;;;18.10;14.85;;;29.20;42.50;;;;;;5038601;28;20048;-73
2023/06/10 08:44:02;;;;;;;16.08;14.38;;;29.40;41.80;;;;;;5040708;28;20069;-73
2023/06/10 08:46:31;;;;;;;14.32;9.52;;;29.40;42.30;;;;;;5035092;28;20417;-73
2023/06/10 08:49:02;;;;;;;12.00;9.02;;;29.60;41.60;;;;;;5041549;28;20399;-73
2023/06/10 08:51:29;;;;;;;14.05;11.90;;;29.70;41.80;;;;;;5044132;28;20033;-73
2023/06/10 08:54:14;;;;;;;11.40;9.02;;;29.80;41.90;;;;;;5040613;28;20565;-73
2023/06/10 08:56:40;;;;;;;19.08;13.85;;;30.10;40.70;;;;;;5037207;28;20500;-73
2023/06/10 08:59:07;;;;;;;10.77;8.30;;;30.30;40.10;;;;;;5040866;28;20478;-73
2023/06/10 09:01:34;;;;;;;9.40;7.90;;;30.30;40.10;;;;;;5040336;28;20041;-73
2023/06/10 09:04:01;;;;;;;17.75;12.02;;;30.40;39.60;;;;;;5039490;28;20028;-72
2023/06/10 09:06:26;;;;;;;12.15;8.20;;;30.50;39.20;;;;;;5038441;28;20482;-73
2023/06/10 09:08:52;;;;;;;13.50;9.40;;;30.50;39.70;;;;;;5044229;28;20074;-73
2023/06/10 09:11:18;;;;;;;11.90;8.65;;;30.50;39.90;;;;;;5035581;28;20029;-73
2023/06/10 09:13:44;;;;;;;12.88;7.97;;;30.60;40.30;;;;;;5039699;28;20045;-73
2023/06/10 09:16:11;;;;;;;9.75;7.10;;;30.60;38.90;;;;;;5034558;28;20038;-74
2023/06/10 09:18:37;;;;;;;11.02;8.23;;;30.70;38.10;;;;;;5037996;28;20022;-74
2023/06/10 09:21:03;;;;;;;10.18;7.75;;;30.70;38.90;;;;;;5037098;28;20468;-74
2023/06/10 09:23:29;;;;;;;12.07;8.48;;;30.70;39.00;;;;;;5042051;28;20039;-73
2023/06/10 09:25:58;;;;;;;10.40;7.55;;;31.00;38.40;;;;;;5037224;28;20474;-74
2023/06/10 09:28:24;;;;;;;12.18;8.30;;;31.00;37.90;;;;;;5040653;28;20033;-73
2023/06/10 09:31:00;;;;;;;12.25;7.63;;;31.00;36.50;;;;;;5038774;28;20536;-73
2023/06/10 09:33:26;;;;;;;10.40;7.40;;;30.80;38.30;;;;;;5038335;28;20163;-73
2023/06/10 09:35:52;;;;;;;12.63;7.80;;;31.00;37.40;;;;;;5040578;28;20135;-74
2023/06/10 09:38:22;;;;;;;9.90;6.93;;;31.00;37.70;;;;;;5039694;28;20127;-74
2023/06/10 09:40:50;;;;;;;9.32;7.22;;;31.10;37.20;;;;;;5040575;28;20037;-74
2023/06/10 09:43:15;;;;;;;10.20;6.80;;;31.10;37.10;;;;;;5039606;28;20421;-74
2023/06/10 09:45:43;;;;;;;15.82;7.03;;;31.30;36.50;;;;;;5036788;28;20040;-74
2023/06/10 09:48:08;;;;;;;9.20;6.18;;;31.30;36.30;;;;;;5038741;28;20056;-73
2023/06/10 09:50:37;;;;;;;9.93;5.78;;;31.40;36.70;;;;;;5038966;28;20037;-73
2023/06/10 09:53:06;;;;;;;7.97;6.13;;;31.40;34.40;;;;;;5041700;28;20029;-73
2023/06/10 09:55:33;;;;;;;9.93;6.40;;;31.70;33.70;;;;;;5040822;28;20036;-73
2023/06/10 09:57:59;;;;;;;9.05;6.20;;;31.40;34.50;;;;;;5037267;28;20043;-73
2023/06/10 10:00:25;;;;;;;8.10;5.88;;;31.50;34.60;;;;;;5035496;28;20037;-73
2023/06/10 10:02:53;;;;;;;10.48;6.25;;;31.70;33.70;;;;;;5040848;28;20033;-73
2023/06/10 10:05:21;;;;;;;10.02;5.88;;;32.00;34.40;;;;;;5040887;28;20430;-73
2023/06/10 10:07:47;;;;;;;8.68;6.10;;;32.00;33.80;;;;;;5040430;28;20047;-73
2023/06/10 10:10:15;;;;;;;9.68;6.53;;;32.20;33.90;;;;;;5037116;28;20021;-73
2023/06/10 10:12:42;;;;;;;7.57;6.03;;;32.10;33.60;;;;;;5039681;28;20048;-73
2023/06/10 10:15:10;;;;;;;9.68;6.40;;;32.20;33.60;;;;;;5040072;28;20025;-74
2023/06/10 10:18:00;;;;;;;8.20;6.47;;;31.90;34.50;;;;;;5031489;28;20477;-74
2023/06/10 10:20:29;;;;;;;9.98;6.68;;;32.00;33.90;;;;;;5035583;28;20707;-74
2023/06/10 10:22:57;;;;;;;9.63;6.97;;;32.10;34.60;;;;;;5039204;28;20039;-74
2023/06/10 10:25:28;;;;;;;10.57;6.65;;;32.40;33.10;;;;;;5047488;28;20029;-75
2023/06/10 10:28:08;;;;;;;8.50;6.53;;;32.30;33.50;;;;;;5039487;28;20041;-74
2023/06/10 10:30:40;;;;;;;9.80;6.85;;;32.30;34.20;;;;;;5041504;28;20079;-75
2023/06/10 10:33:36;;;;;;;8.95;6.55;;;32.20;33.50;;;;;;5037765;28;20052;-75
2023/06/10 10:36:02;;;;;;;11.55;7.28;;;32.50;33.50;;;;;;5040491;28;20033;-74
2023/06/10 10:38:28;;;;;;;10.73;6.80;;;32.40;32.70;;;;;;5041582;28;20508;-73
2023/06/10 10:40:59;;;;;;;9.43;6.30;;;32.40;32.40;;;;;;5039431;28;20064;-73
2023/06/10 10:43:25;;;;;;;11.02;6.78;;;32.40;32.20;;;;;;5039983;28;20021;-73
2023/06/10 10:46:13;;;;;;;10.98;7.30;;;32.40;33.10;;;;;;5038480;28;20021;-74
2023/06/10 10:48:40;;;;;;;9.68;6.68;;;32.30;32.60;;;;;;5037510;28;20107;-73
2023/06/10 10:51:06;;;;;;;9.50;6.53;;;32.50;32.70;;;;;;5034138;28;20111;-74
2023/06/10 10:53:32;;;;;;;10.00;6.78;;;32.80;32.60;;;;;;5042427;28;20021;-73
2023/06/10 10:56:17;;;;;;;8.95;6.97;;;33.20;32.10;;;;;;5037314;28;20082;-74
2023/06/10 10:59:03;;;;;;;9.40;6.90;;;33.00;32.50;;;;;;5038210;28;20029;-74
2023/06/10 11:01:41;;;;;;;9.57;6.70;;;33.00;32.50;;;;;;5042863;28;20048;-74
2023/06/10 11:04:09;;;;;;;9.43;6.40;;;33.00;32.00;;;;;;5039953;28;20116;-73
2023/06/10 11:06:35;;;;;;;9.05;6.65;;;32.60;31.30;;;;;;5041334;28;20033;-73
2023/06/10 11:09:00;;;;;;;10.00;6.63;;;32.60;31.90;;;;;;5039345;28;20108;-73
2023/06/10 11:11:31;;;;;;;9.00;6.25;;;33.00;31.90;;;;;;5041413;28;20077;-74
2023/06/10 11:14:06;;;;;;;10.00;7.13;;;33.10;30.80;;;;;;5038294;28;20512;-74
2023/06/10 11:16:43;;;;;;;10.30;6.38;;;33.10;31.30;;;;;;5039888;28;20337;-73
2023/06/10 11:19:09;;;;;;;10.30;6.68;;;33.20;30.10;;;;;;5042354;28;20205;-74
2023/06/10 11:22:00;;;;;;;8.75;6.28;;;33.00;30.30;;;;;;5042502;28;20029;-73
2023/06/10 11:24:26;;;;;;;9.98;6.43;;;33.30;29.90;;;;;;5038605;28;20101;-73
2023/06/10 11:26:52;;;;;;;11.27;6.32;;;33.10;30.00;;;;;;5039790;28;20103;-73
2023/06/10 11:29:19;;;;;;;9.38;6.30;;;33.40;30.30;;;;;;5036457;28;20040;-71
2023/06/10 11:31:49;;;;;;;9.93;6.25;;;33.30;30.20;;;;;;5034123;28;20033;-71
2023/06/10 11:34:20;;;;;;;8.65;6.38;;;33.30;30.20;;;;;;5037049;28;20028;-71
2023/06/10 11:36:46;;;;;;;8.18;6.28;;;32.80;29.60;;;;;;5045675;28;20549;-71
2023/06/10 11:39:12;;;;;;;8.07;6.03;;;32.70;30.10;;;;;;5041082;28;20021;-71
2023/06/10 11:41:39;;;;;;;9.02;6.53;;;32.80;30.90;;;;;;5042035;28;20052;-71
2023/06/10 11:44:12;;;;;;;8.88;6.40;;;32.80;30.20;;;;;;5041576;28;20359;-71
2023/06/10 11:46:39;;;;;;;8.73;6.40;;;32.90;31.10;;;;;;5034083;28;20036;-71
2023/06/10 11:49:05;;;;;;;8.32;6.10;;;33.00;30.20;;;;;;5039819;28;20024;-71
2023/06/10 11:51:39;;;;;;;9.23;6.30;;;33.10;30.00;;;;;;5037717;28;20129;-72
2023/06/10 11:54:08;;;;;;;10.90;6.78;;;33.40;29.20;;;;;;5036751;28;20047;-71
2023/06/10 11:56:34;;;;;;;8.55;6.20;;;33.00;30.10;;;;;;5036455;28;20040;-71
2023/06/10 11:59:09;;;;;;;12.68;6.63;;;32.90;29.60;;;;;;5039382;28;20437;-71
2023/06/10 12:01:44;;;;;;;10.70;6.50;;;32.90;29.20;;;;;;5037179;28;20072;-71
2023/06/10 12:04:15;;;;;;;9.35;6.72;;;32.90;29.30;;;;;;5040806;28;20524;-71
2023/06/10 12:06:48;;;;;;;10.18;5.75;;;33.00;29.80;;;;;;5042698;28;20029;-71
2023/06/10 12:09:14;;;;;;;;;;;33.50;29.30;;;;;;5034304;28;20026;-70
2023/06/10 12:11:40;;;;;;;11.15;6.70;;;33.70;29.00;;;;;;5041254;28;19923;-71
2023/06/10 12:14:05;;;;;;;8.48;6.30;;;33.50;29.00;;;;;;5043328;28;20124;-71
2023/06/10 12:16:31;;;;;;;9.07;6.35;;;33.50;29.00;;;;;;5038610;28;20100;-70
2023/06/10 12:19:05;;;;;;;8.57;6.22;;;33.90;28.40;;;;;;5044251;28;20293;-70
2023/06/10 12:21:33;;;;;;;10.77;6.90;;;34.00;28.20;;;;;;5032008;28;20037;-71
2023/06/10 12:24:02;;;;;;;7.78;6.47;;;33.80;28.20;;;;;;5032667;28;20054;-71
2023/06/10 12:26:42;;;;;;;9.15;6.50;;;33.40;28.90;;;;;;5033722;28;20037;-71
2023/06/10 12:29:22;;;;;;;10.90;6.78;;;33.20;29.40;;;;;;5028387;28;20028;-71
2023/06/10 12:31:58;;;;;;;9.73;6.63;;;33.50;29.20;;;;;;5030794;28;20033;-71
2023/06/10 12:34:35;;;;;;;8.85;6.55;;;33.50;28.40;;;;;;5029679;28;20279;-71